Time;durP1;ratioP1;P1;durP2;ratioP2;P2;SDS_P1;SDS_P2;PMS_P1;PMS_P2;Temp;Humidity;BMP_temperature;BMP_pressure;BME280_temperature;BME280_humidity;BME280_pressure;Samples;Min_cycle;Max_cycle;Signal;HPM_P1;HPM_P2
2022/06/21 00:00:29;;;;;;;8.40;2.98;;;;;;;13.85;76.07;100351.76;1717523;82;21027;-85
2022/06/21 00:03:01;;;;;;;7.75;3.10;;;;;;;13.77;76.15;100343.34;1709239;83;21537;-84
2022/06/21 00:05:34;;;;;;;9.18;3.10;;;;;;;13.75;76.28;100342.45;1701653;82;21075;-85
2022/06/21 00:08:03;;;;;;;10.05;3.00;;;;;;;13.73;76.41;100337.59;1662931;85;21085;-85
2022/06/21 00:10:34;;;;;;;9.03;3.60;;;;;;;13.74;76.51;100345.08;1716206;82;21031;-85
2022/06/21 00:13:03;;;;;;;9.00;3.12;;;;;;;13.72;76.54;100343.78;1643921;86;21106;-84
2022/06/21 00:15:30;;;;;;;7.37;3.17;;;;;;;13.72;76.60;100346.84;1735406;82;21710;-85
2022/06/21 00:17:57;;;;;;;7.22;2.95;;;;;;;13.69;76.60;100347.72;1723716;82;21051;-84
2022/06/21 00:20:27;;;;;;;6.42;3.70;;;;;;;13.68;76.66;100345.05;1727284;82;21105;-85
2022/06/21 00:22:54;;;;;;;12.18;3.85;;;;;;;13.66;76.77;100346.81;1743149;82;21266;-84
2022/06/21 00:25:29;;;;;;;10.63;4.65;;;;;;;13.64;76.82;100341.50;1744748;82;21077;-84
2022/06/21 00:27:55;;;;;;;5.90;2.90;;;;;;;13.65;76.88;100349.03;1739726;82;21782;-84
2022/06/21 00:30:22;;;;;;;6.03;3.00;;;;;;;13.66;76.96;100341.07;1729555;82;21548;-85
2022/06/21 00:32:52;;;;;;;6.58;3.05;;;;;;;13.67;76.90;100343.30;1745101;82;21714;-84
2022/06/21 00:35:22;;;;;;;5.08;2.62;;;;;;;13.65;76.78;100337.12;1700349;83;21126;-86
2022/06/21 00:37:49;;;;;;;4.65;2.60;;;;;;;13.61;76.78;100334.45;1708962;82;21094;-85
2022/06/21 00:40:32;;;;;;;5.87;2.58;;;;;;;13.59;76.70;100343.27;1705229;83;21697;-85
2022/06/21 00:43:06;;;;;;;5.87;2.40;;;;;;;13.57;76.75;100340.60;1708215;82;21587;-85
2022/06/21 00:45:41;;;;;;;4.60;2.05;;;;;;;13.53;76.73;100332.63;1727875;82;21070;-85
2022/06/21 00:48:26;;;;;;;4.97;2.33;;;;;;;13.52;76.70;100333.07;1715365;82;21033;-85
2022/06/21 00:51:17;;;;;;;6.90;2.12;;;;;;;13.49;76.63;100335.69;1710044;82;21070;-85
2022/06/21 00:53:51;;;;;;;7.22;2.50;;;;;;;13.44;76.51;100330.83;1697378;84;22792;-84
2022/06/21 00:56:27;;;;;;;4.50;2.23;;;;;;;13.40;76.57;100332.56;1701564;83;21559;-85
2022/06/21 00:58:54;;;;;;;5.55;2.37;;;;;;;13.39;76.65;100330.78;1630108;85;21317;-85
2022/06/21 01:01:29;;;;;;;5.75;1.90;;;;;;;13.37;76.62;100333.85;1725007;82;21074;-84
2022/06/21 01:04:33;;;;;;;7.17;2.60;;;;;;;13.34;76.60;100328.98;1720323;82;21048;-85
2022/06/21 01:07:00;;;;;;;4.37;2.20;;;;;;;13.27;76.58;100333.32;1674205;85;22582;-87
2022/06/21 01:09:55;;;;;;;9.00;2.58;;;;;;;13.26;76.63;100334.63;1674391;85;21067;-84
2022/06/21 01:12:27;;;;;;;7.92;3.15;;;;;;;13.21;76.71;100330.20;1665090;85;21098;-85
2022/06/21 01:15:03;;;;;;;7.50;2.80;;;;;;;13.19;76.76;100335.91;1650959;85;21085;-85
2022/06/21 01:17:30;;;;;;;4.62;2.20;;;;;;;13.14;76.86;100328.37;1715879;82;21043;-87
2022/06/21 01:20:24;;;;;;;4.45;2.58;;;;;;;13.15;76.95;100330.57;1706769;82;21802;-85
2022/06/21 01:23:05;;;;;;;5.45;2.30;;;;;;;13.13;76.94;100334.52;1724121;82;21384;-84
2022/06/21 01:26:24;;;;;;;5.12;2.40;;;;;;;13.07;77.05;100330.96;1744620;82;21094;-85
2022/06/21 01:28:51;;;;;;;6.78;2.83;;;;;;;13.02;77.19;100336.19;1744010;81;21098;-85
2022/06/21 01:31:22;;;;;;;5.42;2.83;;;;;;;12.97;77.20;100333.52;1723281;82;21074;-85
2022/06/21 01:33:49;;;;;;;7.70;2.60;;;;;;;12.89;77.27;100327.27;1745483;82;21751;-85
2022/06/21 01:36:26;;;;;;;4.75;2.30;;;;;;;12.86;77.39;100325.94;1744647;82;21269;-85
2022/06/21 01:39:07;;;;;;;5.95;2.33;;;;;;;12.83;77.47;100325.45;1744707;82;21043;-85
2022/06/21 01:41:38;;;;;;;5.25;2.47;;;;;;;12.82;77.55;100324.16;1737172;81;21051;-86
2022/06/21 01:44:10;;;;;;;3.65;2.22;;;;;;;12.83;77.65;100327.22;1726968;82;21067;-84
2022/06/21 01:46:37;;;;;;;4.25;2.27;;;;;;;12.82;77.68;100319.74;1727908;83;21764;-85
2022/06/21 01:49:12;;;;;;;6.65;2.65;;;;;;;12.81;77.66;100323.24;1719430;83;21576;-85
2022/06/21 01:51:43;;;;;;;5.45;2.47;;;;;;;12.80;77.72;100321.48;1710368;83;21107;-85
2022/06/21 01:54:11;;;;;;;4.45;2.30;;;;;;;12.78;77.69;100323.64;1726160;82;21601;-85
2022/06/21 01:56:39;;;;;;;6.58;2.10;;;;;;;12.75;77.73;100328.48;1689773;82;21095;-85
2022/06/21 01:59:15;;;;;;;4.30;1.95;;;;;;;12.74;77.78;100326.69;1700606;83;21715;-85
2022/06/21 02:01:59;;;;;;;7.65;2.77;;;;;;;12.72;77.82;100328.87;1709188;83;21088;-84
2022/06/21 02:04:29;;;;;;;4.58;2.33;;;;;;;12.70;77.89;100330.18;1684522;83;21140;-85
2022/06/21 02:06:59;;;;;;;5.45;2.35;;;;;;;12.70;77.93;100328.86;1705211;83;21687;-85
2022/06/21 02:09:27;;;;;;;3.05;1.87;;;;;;;12.70;77.89;100327.98;1710082;83;21083;-85
2022/06/21 02:12:02;;;;;;;3.00;2.10;;;;;;;12.71;78.05;100320.53;1706424;83;21850;-84
2022/06/21 02:14:35;;;;;;;6.95;2.12;;;;;;;12.71;77.88;100321.84;1724158;83;21079;-84
2022/06/21 02:17:14;;;;;;;;;;;;;;;12.70;77.96;100326.66;1726222;83;21659;-86
2022/06/21 02:20:03;;;;;;;3.08;1.75;;;;;;;12.69;77.98;100323.15;1709878;83;20445;-85
2022/06/21 02:22:30;;;;;;;4.05;2.27;;;;;;;12.37;77.90;100272.23;1709375;82;21148;-85
2022/06/21 02:24:57;;;;;;;4.80;1.82;;;;;;;12.66;77.92;100325.75;1643694;85;22552;-85
2022/06/21 02:27:27;;;;;;;2.85;1.87;;;;;;;12.63;77.89;100326.61;1631926;86;21079;-85
2022/06/21 02:29:56;;;;;;;4.65;1.52;;;;;;;12.60;77.94;100321.73;1631181;86;21107;-86
2022/06/21 02:32:35;;;;;;;3.40;1.80;;;;;;;12.57;77.93;100321.25;1671496;84;21619;-86
2022/06/21 02:35:25;;;;;;;5.62;1.87;;;;;;;12.57;78.02;100319.92;1668174;85;21136;-85
2022/06/21 02:37:53;;;;;;;2.67;1.70;;;;;;;12.58;78.04;100318.20;1647809;85;21980;-85
2022/06/21 02:40:35;;;;;;;2.50;1.70;;;;;;;12.61;78.14;100321.76;1658353;85;21070;-86
2022/06/21 02:43:10;;;;;;;3.83;1.90;;;;;;;12.60;78.08;100316.45;1694762;84;21035;-85
2022/06/21 02:45:51;;;;;;;7.20;1.95;;;;;;;12.62;78.23;100313.39;1692048;84;21557;-85
2022/06/21 02:48:25;;;;;;;3.70;1.65;;;;;;;12.63;78.27;100313.41;1674882;84;21134;-85
2022/06/21 02:50:55;;;;;;;;;;;;;;;12.67;78.25;100318.29;1675712;84;21843;-84
2022/06/21 02:53:29;;;;;;;2.25;1.42;;;;;;;12.70;78.27;100312.14;1693314;83;20297;-85
2022/06/21 02:56:00;;;;;;;3.08;1.25;;;;;;;12.69;78.12;100316.95;1723228;82;21067;-87
2022/06/21 02:58:37;;;;;;;2.95;1.65;;;;;;;12.70;78.07;100317.42;1705870;82;21629;-87
2022/06/21 03:01:07;;;;;;;3.30;1.70;;;;;;;12.71;78.04;100317.44;1717671;82;21157;-85
2022/06/21 03:03:34;;;;;;;3.22;1.85;;;;;;;12.70;77.96;100321.38;1689923;83;22584;-85
2022/06/21 03:06:03;;;;;;;4.40;2.05;;;;;;;12.68;77.92;100319.16;1707866;82;21067;-85
2022/06/21 03:08:30;;;;;;;3.08;1.55;;;;;;;12.66;77.92;100312.98;1665190;85;21053;-85
2022/06/21 03:10:57;;;;;;;6.05;1.65;;;;;;;12.64;77.70;100315.16;1712516;82;21628;-85
2022/06/21 03:13:28;;;;;;;3.90;1.65;;;;;;;12.60;77.50;100313.81;1711768;82;21059;-85
2022/06/21 03:16:07;;;;;;;3.50;1.95;;;;;;;12.56;77.45;100309.38;1731420;82;21265;-85
2022/06/21 03:18:41;;;;;;;5.87;1.70;;;;;;;12.52;77.40;100317.70;1708695;82;21154;-86
2022/06/21 03:21:11;;;;;;;3.58;1.60;;;;;;;12.50;77.42;100308.88;1718826;82;21588;-85
2022/06/21 03:23:37;;;;;;;2.20;1.20;;;;;;;12.51;77.53;100310.64;1701545;83;21159;-85
2022/06/21 03:26:04;;;;;;;4.05;1.22;;;;;;;12.53;77.54;100306.70;1706900;82;21067;-86
2022/06/21 03:28:41;;;;;;;3.65;1.40;;;;;;;12.53;77.50;100313.30;1720452;82;21708;-86
2022/06/21 03:31:23;;;;;;;3.40;1.50;;;;;;;12.50;77.53;100317.22;1722118;82;21094;-86
2022/06/21 03:34:02;;;;;;;3.75;1.47;;;;;;;12.49;77.50;100320.30;1719256;82;21682;-86
2022/06/21 03:36:29;;;;;;;3.67;1.77;;;;;;;12.49;77.67;100329.54;1716770;82;21201;-86
2022/06/21 03:39:06;;;;;;;2.55;1.62;;;;;;;12.50;77.63;100332.64;1716440;82;21104;-85
2022/06/21 03:41:44;;;;;;;2.80;1.92;;;;;;;12.49;77.77;100329.54;1730707;82;22569;-85
2022/06/21 03:44:17;;;;;;;2.80;2.22;;;;;;;12.51;77.84;100333.08;1664745;85;21115;-86
2022/06/21 03:46:58;;;;;;;3.87;1.05;;;;;;;12.51;77.67;100333.08;1715991;83;21134;-86
2022/06/21 03:49:41;;;;;;;2.52;1.92;;;;;;;12.50;77.86;100331.33;1717426;82;21051;-86
2022/06/21 03:52:12;;;;;;;;;;;;;;;12.52;77.64;100334.86;1711364;82;21090;-86
2022/06/21 03:54:43;;;;;;;2.42;1.12;;;;;;;12.51;77.73;100337.03;1731197;82;21795;-88
2022/06/21 03:57:17;;;;;;;2.40;1.50;;;;;;;12.54;77.82;100333.12;1701160;83;21694;-89
2022/06/21 04:00:29;;;;;;;4.78;1.10;;;;;;;12.59;77.75;100329.19;1706709;83;21603;-88
2022/06/21 04:03:18;;;;;;;1.95;1.37;;;;;;;12.64;77.80;100335.41;1723846;83;21596;-89
2022/06/21 04:06:37;;;;;;;1.72;1.25;;;;;;;12.68;77.76;100335.88;1726048;82;21075;-88
2022/06/21 04:09:30;;;;;;;4.70;1.37;;;;;;;12.72;77.73;100334.16;1731201;82;21781;-87
2022/06/21 04:12:20;;;;;;;2.70;1.10;;;;;;;12.75;77.64;100336.40;1716574;82;21119;-89
2022/06/21 04:15:08;;;;;;;1.80;1.05;;;;;;;12.74;77.51;100334.61;1707939;83;21127;-86
2022/06/21 04:17:51;;;;;;;3.92;1.62;;;;;;;12.77;77.58;100339.06;1715073;82;21110;-89
2022/06/21 04:20:30;;;;;;;4.67;1.60;;;;;;;12.81;77.51;100340.86;1704808;83;21350;-90
2022/06/21 04:23:16;;;;;;;1.80;1.12;;;;;;;12.85;77.58;100341.33;1687312;84;21781;-92
2022/06/21 04:25:54;;;;;;;2.02;1.20;;;;;;;12.94;77.60;100334.80;1707792;82;21122;-87
2022/06/21 04:28:31;;;;;;;4.62;1.60;;;;;;;12.70;77.50;100269.45;1714915;82;21103;-87
2022/06/21 04:31:23;;;;;;;4.30;1.52;;;;;;;13.19;77.68;100329.30;1709810;83;21055;-89
2022/06/21 04:34:04;;;;;;;1.47;1.15;;;;;;;13.41;77.74;100324.19;1719248;82;21095;-90
2022/06/21 04:36:40;;;;;;;3.58;1.80;;;;;;;13.63;77.56;100322.56;1699893;83;22560;-87
2022/06/21 04:39:24;;;;;;;6.85;1.80;;;;;;;13.87;77.54;100316.94;1695526;83;21241;-87
2022/06/21 04:42:16;;;;;;;4.67;1.72;;;;;;;14.18;77.52;100313.53;1730580;82;21055;-89
2022/06/21 04:49:04;;;;;;;5.22;1.60;;;;;;;15.52;77.66;100316.72;1652547;86;21059;-89
2022/06/21 04:52:06;;;;;;;1.50;1.00;;;;;;;17.23;77.58;100325.13;1668218;85;21815;-92
2022/06/21 04:54:34;;;;;;;1.37;1.00;;;;;;;18.37;74.40;100328.73;1697078;84;21083;-90
2022/06/21 04:57:12;;;;;;;2.12;1.15;;;;;;;18.73;72.49;100331.80;1702196;82;21063;-87
2022/06/21 04:59:48;;;;;;;3.12;1.30;;;;;;;18.60;70.55;100325.76;1678261;84;21146;-91
2022/06/21 05:02:28;;;;;;;2.52;1.22;;;;;;;18.30;69.94;100332.41;1691489;83;21081;-87
2022/06/21 05:04:59;;;;;;;3.02;1.30;;;;;;;17.94;69.23;100330.61;1707585;82;22613;-86
2022/06/21 05:07:29;;;;;;;1.20;1.10;;;;;;;18.01;69.94;100329.64;1623409;86;21085;-85
2022/06/21 05:09:57;;;;;;;1.80;1.30;;;;;;;19.08;70.58;100332.16;1689579;84;21587;-86
2022/06/21 05:12:34;;;;;;;5.35;1.98;;;;;;;20.75;70.28;100320.81;1669164;85;21164;-88
2022/06/21 05:15:15;;;;;;;3.40;1.87;;;;;;;21.16;66.75;100318.91;1651126;86;21704;-88
2022/06/21 05:17:48;;;;;;;5.17;1.72;;;;;;;20.73;65.05;100319.97;1651277;86;21874;-88
2022/06/21 05:20:20;;;;;;;5.03;1.35;;;;;;;20.90;65.12;100313.34;1648081;85;21106;-85
2022/06/21 05:22:52;;;;;;;3.77;1.52;;;;;;;21.76;66.57;100288.81;1650898;86;21594;-88
2022/06/21 05:25:34;;;;;;;3.80;2.27;;;;;;;24.29;66.56;100302.75;1654357;85;21690;-86
2022/06/21 05:28:25;;;;;;;2.02;1.17;;;;;;;26.60;64.21;100307.16;1647029;87;21131;-87
2022/06/21 05:30:56;;;;;;;2.45;1.42;;;;;;;28.26;59.59;100304.44;1646713;86;22586;-86
2022/06/21 05:33:38;;;;;;;2.05;1.02;;;;;;;27.73;56.91;100305.91;1623361;87;21589;-86
2022/06/21 05:36:09;;;;;;;3.83;1.50;;;;;;;28.30;55.50;100297.89;1647137;86;21126;-89
2022/06/21 05:38:36;;;;;;;1.30;1.00;;;;;;;27.67;53.25;100306.24;1659133;86;21175;-86
2022/06/21 05:41:31;;;;;;;2.47;1.40;;;;;;;27.60;53.61;100299.41;1659395;86;21090;-86
2022/06/21 05:44:14;;;;;;;2.30;1.40;;;;;;;28.00;51.93;100301.34;1657683;86;21799;-86
2022/06/21 05:46:58;;;;;;;2.15;1.55;;;;;;;26.29;49.35;100292.88;1634618;86;21126;-85
2022/06/21 05:49:29;;;;;;;5.12;2.15;;;;;;;24.52;49.57;100302.77;1640632;86;21096;-86
2022/06/21 05:52:01;;;;;;;4.25;1.40;;;;;;;23.12;50.12;100302.47;1644443;86;21641;-88
2022/06/21 05:54:32;;;;;;;3.00;1.30;;;;;;;21.93;51.15;100314.65;1643075;87;21096;-88
2022/06/21 05:57:02;;;;;;;3.98;1.72;;;;;;;20.84;51.39;100310.36;1652077;85;21789;-90
2022/06/21 05:59:29;;;;;;;3.27;1.30;;;;;;;19.99;52.21;100316.24;1648998;86;21147;-89
2022/06/21 06:02:15;;;;;;;3.58;1.40;;;;;;;19.16;52.70;100315.13;1647343;87;21090;-88
2022/06/21 06:04:53;;;;;;;4.08;1.50;;;;;;;18.62;54.04;100327.95;1632899;87;21103;-88
2022/06/21 06:07:33;;;;;;;4.22;1.60;;;;;;;18.10;54.47;100333.98;1641936;86;21585;-89
2022/06/21 06:10:00;;;;;;;3.25;1.35;;;;;;;17.68;55.43;100331.78;1646807;86;21841;-87
2022/06/21 06:12:34;;;;;;;4.35;1.52;;;;;;;17.29;56.11;100340.59;1667924;85;21076;-85
2022/06/21 06:15:20;;;;;;;27.95;2.60;;;;;;;17.07;56.95;100340.34;1660923;84;21059;-86
2022/06/21 06:18:01;;;;;;;4.70;1.17;;;;;;;16.83;57.03;100334.77;1625761;87;21094;-88
2022/06/21 06:21:03;;;;;;;2.33;1.10;;;;;;;16.62;57.79;100331.78;1719194;83;21632;-85
2022/06/21 06:23:39;;;;;;;2.22;1.27;;;;;;;16.55;57.83;100328.27;1727453;83;21874;-89
2022/06/21 06:26:12;;;;;;;8.48;3.25;;;;;;;16.80;58.50;100334.32;1707011;82;21047;-88
2022/06/21 06:29:06;;;;;;;3.10;1.90;;;;;;;17.22;58.14;100333.55;1696291;82;21099;-84
2022/06/21 06:31:56;;;;;;;6.70;2.22;;;;;;;17.63;57.23;100335.39;1726054;83;21134;-87
2022/06/21 06:34:37;;;;;;;4.80;1.50;;;;;;;17.82;56.67;100330.28;1694262;83;21094;-88
2022/06/21 06:37:07;;;;;;;3.15;1.35;;;;;;;17.96;56.36;100339.50;1694128;84;21772;-88
2022/06/21 06:39:36;;;;;;;5.12;1.50;;;;;;;18.02;55.85;100355.39;1693543;84;21102;-85
2022/06/21 06:42:17;;;;;;;3.80;1.00;;;;;;;17.90;55.34;100362.17;1693319;84;21122;-85
2022/06/21 06:44:48;;;;;;;2.70;1.20;;;;;;;17.59;55.64;100365.60;1693968;84;21099;-85
2022/06/21 06:47:29;;;;;;;3.58;1.32;;;;;;;17.28;55.91;100370.73;1692862;84;21110;-85
2022/06/21 06:50:01;;;;;;;2.37;1.00;;;;;;;17.09;56.02;100363.81;1690266;84;21803;-85
2022/06/21 06:52:35;;;;;;;1.65;0.90;;;;;;;16.85;56.48;100378.16;1686112;84;21111;-85
2022/06/21 06:55:16;;;;;;;2.08;0.90;;;;;;;16.78;57.08;100381.72;1692040;84;21113;-86
2022/06/21 06:57:50;;;;;;;2.37;0.93;;;;;;;16.74;57.04;100397.25;1687215;84;21620;-85
2022/06/21 07:00:25;;;;;;;3.25;1.35;;;;;;;16.73;57.69;100416.31;1678584;84;21113;-88
2022/06/21 07:02:56;;;;;;;9.88;1.67;;;;;;;16.78;57.41;100409.20;1685213;84;21770;-88
2022/06/21 07:05:59;;;;;;;3.98;2.00;;;;;;;16.94;57.78;100415.33;1659368;84;22160;-89
2022/06/21 07:09:03;;;;;;;41.68;6.75;;;;;;;17.17;57.37;100430.23;1672932;84;21103;-88
2022/06/21 07:11:41;;;;;;;4.90;2.53;;;;;;;17.43;57.48;100424.72;1697253;83;21573;-89
2022/06/21 07:14:20;;;;;;;6.08;2.65;;;;;;;17.87;57.28;100427.47;1710031;82;21626;-89
2022/06/21 07:16:45;;;;;;;3.45;2.35;;;;;;;18.06;56.85;100435.68;1694690;82;21743;-88
2022/06/21 07:19:11;;;;;;;5.17;1.65;;;;;;;18.16;56.40;100428.47;1670196;84;21051;-88
2022/06/21 07:21:38;;;;;;;3.37;1.55;;;;;;;18.28;56.45;100429.22;1661329;83;21070;-88
2022/06/21 07:24:15;;;;;;;3.50;1.52;;;;;;;18.30;56.15;100428.33;1683449;83;21113;-85
2022/06/21 07:26:52;;;;;;;2.85;1.77;;;;;;;18.42;56.39;100419.29;1728055;83;21083;-85
2022/06/21 07:29:36;;;;;;;2.55;1.60;;;;;;;18.65;55.93;100421.64;1705663;83;21758;-87
2022/06/21 07:32:10;;;;;;;4.60;2.60;;;;;;;18.81;56.23;100425.03;1689304;84;21093;-85
2022/06/21 07:34:49;;;;;;;4.87;1.90;;;;;;;18.97;55.95;100419.00;1722743;82;21028;-85
2022/06/21 07:37:20;;;;;;;3.02;1.35;;;;;;;18.93;55.77;100426.63;1712512;82;21110;-85
2022/06/21 07:39:56;;;;;;;5.20;1.22;;;;;;;18.95;55.75;100425.69;1719158;83;21217;-88
2022/06/21 07:42:36;;;;;;;4.10;1.62;;;;;;;18.78;55.58;100437.03;1629100;85;21807;-85
2022/06/21 07:45:11;;;;;;;4.75;1.70;;;;;;;18.60;55.88;100435.05;1674884;84;22257;-85
2022/06/21 07:47:53;;;;;;;4.12;1.87;;;;;;;18.48;56.26;100439.19;1689525;84;21075;-86
2022/06/21 07:50:45;;;;;;;9.73;1.60;;;;;;;18.51;56.58;100458.28;1675820;84;21631;-85
2022/06/21 07:53:35;;;;;;;3.10;1.42;;;;;;;18.36;56.53;100448.69;1695215;84;21700;-85
2022/06/21 07:56:16;;;;;;;2.90;1.20;;;;;;;18.21;56.73;100457.27;1686517;84;21786;-85
2022/06/21 07:58:51;;;;;;;5.08;1.50;;;;;;;17.94;57.13;100454.44;1695010;84;21070;-85
2022/06/21 08:07:32;;;;;;;4.47;2.22;;;;;;;18.11;57.83;100454.26;1680605;84;21078;-86
2022/06/21 08:10:24;;;;;;;5.08;2.62;;;;;;;18.11;57.53;100460.05;1690127;83;21784;-85
2022/06/21 08:12:51;;;;;;;8.13;3.67;;;;;;;18.13;57.72;100461.81;1703452;84;21067;-85
2022/06/21 08:15:18;;;;;;;4.97;2.37;;;;;;;18.06;57.83;100460.98;1687141;83;21068;-86
2022/06/21 08:17:59;;;;;;;4.05;2.10;;;;;;;18.09;57.75;100471.17;1699483;84;21183;-86
2022/06/21 08:20:42;;;;;;;3.67;1.82;;;;;;;18.28;58.18;100462.06;1700470;84;21064;-86
2022/06/21 08:23:21;;;;;;;3.08;1.10;;;;;;;18.49;58.04;100474.71;1675067;84;21324;-86
2022/06/21 08:26:13;;;;;;;3.95;1.40;;;;;;;18.51;57.59;100473.81;1695537;84;21123;-86
2022/06/21 08:28:50;;;;;;;5.62;2.00;;;;;;;18.45;57.56;100485.89;1689882;84;21377;-86
2022/06/21 08:31:31;;;;;;;6.00;1.87;;;;;;;18.39;57.39;100475.27;1683585;83;21091;-85
2022/06/21 08:34:15;;;;;;;7.10;2.10;;;;;;;18.35;57.05;100486.88;1674920;84;21071;-85
2022/06/21 08:36:47;;;;;;;5.60;2.62;;;;;;;18.23;57.06;100488.77;1674990;84;21845;-85
2022/06/21 08:39:45;;;;;;;5.00;2.37;;;;;;;18.16;57.09;100463.55;1674732;84;21078;-84
2022/06/21 08:42:33;;;;;;;5.78;2.77;;;;;;;18.26;56.79;100496.75;1690579;84;21064;-84
2022/06/21 08:48:30;;;;;;;3.10;1.47;;;;;;;18.11;56.94;100495.55;1708372;82;21086;-84
2022/06/21 08:51:19;;;;;;;3.60;2.00;;;;;;;18.14;56.55;100496.86;1656119;83;23060;-84
2022/06/21 08:54:04;;;;;;;3.27;1.30;;;;;;;18.13;56.36;100500.86;1706320;82;21063;-85
2022/06/21 08:56:51;;;;;;;5.22;1.50;;;;;;;18.06;56.57;100491.61;1706902;82;21127;-85
2022/06/21 09:00:04;;;;;;;4.92;1.50;;;;;;;18.24;56.89;100497.64;1720967;82;21556;-85
2022/06/21 09:02:37;;;;;;;6.95;4.53;;;;;;;18.31;56.83;100492.69;1737302;82;21041;-87
2022/06/21 09:05:33;;;;;;;5.62;4.40;;;;;;;18.52;57.12;100494.67;1721770;82;21765;-88
2022/06/21 09:08:42;;;;;;;7.20;1.80;;;;;;;18.87;56.71;100490.27;1713269;82;21063;-85
2022/06/21 09:11:55;;;;;;;7.35;2.52;;;;;;;19.28;55.74;100504.81;1731080;81;21119;-86
2022/06/21 09:14:59;;;;;;;6.40;1.70;;;;;;;19.35;54.84;100494.48;1734213;82;21040;-86
2022/06/21 09:17:32;;;;;;;;;;;;;;;19.19;54.71;100509.83;1708811;82;21559;-86
2022/06/21 09:20:28;;;;;;;6.87;1.77;;;;;;;19.10;54.75;100503.28;1721323;82;21766;-87
2022/06/21 09:23:09;;;;;;;4.22;1.75;;;;;;;19.26;54.93;100500.39;1738224;82;21719;-85
2022/06/21 09:25:47;;;;;;;4.05;1.70;;;;;;;19.31;54.87;100505.21;1710856;82;21107;-85
2022/06/21 09:28:47;;;;;;;2.33;1.10;;;;;;;19.07;54.88;100493.11;1718023;82;21055;-86
2022/06/21 09:31:28;;;;;;;3.85;1.10;;;;;;;18.86;55.02;100503.62;1713869;82;21067;-89
2022/06/21 09:34:09;;;;;;;4.15;1.27;;;;;;;18.69;55.55;100511.34;1738703;82;21826;-86
2022/06/21 09:37:19;;;;;;;6.53;1.67;;;;;;;18.93;56.04;100527.52;1730792;82;21061;-85
2022/06/21 09:40:09;;;;;;;4.15;1.40;;;;;;;19.13;55.28;100523.72;1724836;82;21058;-85
2022/06/21 09:43:01;;;;;;;3.77;1.40;;;;;;;19.30;55.30;100521.69;1710238;83;21038;-85
2022/06/21 09:46:12;;;;;;;6.58;1.32;;;;;;;19.50;55.23;100509.39;1710022;82;21090;-85
2022/06/21 09:49:09;;;;;;;2.92;1.50;;;;;;;19.58;54.91;100524.81;1719159;82;23218;-87
2022/06/21 09:52:05;;;;;;;5.90;1.40;;;;;;;19.46;54.68;100511.64;1739609;82;21531;-88
2022/06/21 09:54:38;;;;;;;4.15;1.52;;;;;;;19.36;54.83;100519.38;1739835;82;21078;-88
2022/06/21 09:57:31;;;;;;;4.62;1.35;;;;;;;19.50;55.10;100526.73;1719807;82;21118;-86
2022/06/21 10:00:18;;;;;;;2.50;1.42;;;;;;;19.73;54.72;100538.41;1739358;82;21070;-89
2022/06/21 10:03:11;;;;;;;3.77;2.02;;;;;;;19.61;52.68;100528.78;1709366;82;21769;-85
2022/06/21 10:05:56;;;;;;;3.52;1.65;;;;;;;19.55;53.03;100535.99;1709400;82;21063;-88
2022/06/21 10:08:59;;;;;;;4.42;1.67;;;;;;;19.40;52.79;100542.45;1675585;84;21116;-90
2022/06/21 10:11:52;;;;;;;3.45;1.80;;;;;;;19.51;53.35;100563.65;1703096;83;21077;-86
2022/06/21 10:14:49;;;;;;;4.37;1.55;;;;;;;19.53;52.17;100558.70;1714792;82;21083;-86
2022/06/21 10:17:26;;;;;;;2.65;1.60;;;;;;;19.70;52.08;100568.25;1695131;82;22669;-88
2022/06/21 10:20:23;;;;;;;2.60;1.40;;;;;;;19.80;52.25;100567.22;1674159;85;21025;-88
2022/06/21 10:23:17;;;;;;;2.33;1.30;;;;;;;20.13;50.94;100560.91;1695875;84;21150;-88
2022/06/21 10:26:24;;;;;;;4.62;1.42;;;;;;;20.13;50.94;100532.84;1684436;83;21087;-85
2022/06/21 10:29:23;;;;;;;6.05;1.57;;;;;;;20.35;51.39;100570.77;1654387;86;21080;-88
2022/06/21 10:32:23;;;;;;;4.90;1.62;;;;;;;20.53;50.67;100570.42;1671618;85;22664;-88
2022/06/21 10:35:16;;;;;;;3.67;1.70;;;;;;;20.65;50.67;100551.08;1622025;87;21171;-85
2022/06/21 10:38:27;;;;;;;6.30;1.90;;;;;;;20.97;50.84;100573.16;1607800;87;21622;-87
2022/06/21 10:41:11;;;;;;;3.92;1.52;;;;;;;21.09;50.36;100574.22;1673676;85;21109;-87
2022/06/21 10:44:14;;;;;;;3.42;1.42;;;;;;;21.15;50.61;100570.09;1690141;83;21102;-87
2022/06/21 10:46:50;;;;;;;3.05;1.20;;;;;;;21.20;49.73;100570.45;1674776;84;21900;-87
2022/06/21 10:49:44;;;;;;;2.37;0.93;;;;;;;21.11;49.53;100590.25;1681977;85;22387;-88
2022/06/21 10:52:36;;;;;;;4.50;1.30;;;;;;;21.04;49.20;100584.16;1676764;84;21094;-88
2022/06/21 10:55:10;;;;;;;2.70;0.98;;;;;;;20.78;49.15;100599.41;1673112;83;21667;-85
2022/06/21 10:58:09;;;;;;;3.92;1.40;;;;;;;20.56;49.25;100594.88;1675486;85;21107;-85
2022/06/21 11:01:17;;;;;;;2.40;0.98;;;;;;;20.36;49.58;100597.47;1674807;84;21757;-85
2022/06/21 11:04:01;;;;;;;5.70;1.00;;;;;;;20.45;49.06;100605.77;1677661;84;21066;-85
2022/06/21 11:06:58;;;;;;;2.65;1.00;;;;;;;20.31;48.29;100615.38;1671448;84;21663;-87
2022/06/21 11:09:38;;;;;;;2.70;1.35;;;;;;;20.22;48.80;100609.31;1701328;81;21220;-88
2022/06/21 11:15:34;;;;;;;4.37;1.15;;;;;;;19.85;49.17;100602.76;1715430;83;22700;-88
2022/06/21 11:18:24;;;;;;;2.90;1.35;;;;;;;19.85;49.17;100602.76;1690919;82;21093;-88
2022/06/21 11:21:20;;;;;;;3.35;1.50;;;;;;;19.97;49.51;100625.72;1654739;85;21895;-88
2022/06/21 11:24:09;;;;;;;3.02;1.25;;;;;;;19.83;49.63;100587.67;1663324;85;21435;-89
2022/06/21 11:27:02;;;;;;;2.47;1.20;;;;;;;19.96;49.44;100585.23;1674263;85;21035;-85
2022/06/21 11:30:10;;;;;;;2.20;1.07;;;;;;;20.28;48.79;100591.36;1668107;85;21919;-85
2022/06/21 11:33:14;;;;;;;1.60;1.02;;;;;;;20.53;49.10;100625.24;1648290;85;22106;-85
2022/06/21 11:35:52;;;;;;;2.77;1.20;;;;;;;20.74;49.10;100599.92;1658406;85;21665;-88
2022/06/21 11:38:24;;;;;;;3.37;1.32;;;;;;;20.98;48.81;100629.75;1652615;85;21103;-85
2022/06/21 11:41:08;;;;;;;1.57;0.90;;;;;;;20.90;49.09;100591.12;1659115;85;21106;-87
2022/06/21 11:43:58;;;;;;;1.80;1.12;;;;;;;21.19;48.55;100632.91;1649004;85;21779;-89
2022/06/21 11:46:35;;;;;;;1.65;0.88;;;;;;;21.25;48.99;100626.11;1632854;86;21680;-85
2022/06/21 11:49:32;;;;;;;1.90;0.82;;;;;;;21.43;48.09;100631.05;1644693;86;21164;-89
2022/06/21 11:52:20;;;;;;;2.50;0.45;;;;;;;21.32;47.53;100632.64;1651653;86;21138;-86
2022/06/21 11:54:51;;;;;;;1.42;0.93;;;;;;;21.09;47.53;100637.58;1631704;86;21812;-86
2022/06/21 11:57:41;;;;;;;1.45;0.82;;;;;;;20.79;47.19;100651.97;1645880;85;21886;-86
2022/06/21 12:00:15;;;;;;;2.00;0.70;;;;;;;20.48;48.44;100640.94;1655095;86;21124;-86
2022/06/21 12:02:58;;;;;;;2.75;1.00;;;;;;;20.19;48.35;100663.21;1637658;86;21120;-86
2022/06/21 12:05:45;;;;;;;1.12;0.78;;;;;;;19.72;49.34;100613.17;1637229;86;21554;-85
2022/06/21 12:08:48;;;;;;;1.98;1.00;;;;;;;19.72;49.34;100613.17;1672770;83;21067;-88
2022/06/21 12:11:29;;;;;;;2.62;1.20;;;;;;;20.08;49.94;100641.59;1679055;84;21773;-88
2022/06/21 12:14:04;;;;;;;1.20;0.70;;;;;;;20.44;49.72;100627.17;1680201;84;21040;-88
2022/06/21 12:17:12;;;;;;;1.10;0.50;;;;;;;20.68;49.04;100649.48;1697982;83;21116;-87
2022/06/21 12:19:41;;;;;;;1.55;0.93;;;;;;;20.47;48.70;100619.98;1703062;83;21074;-87
2022/06/21 12:22:25;;;;;;;1.07;0.72;;;;;;;20.47;48.89;100628.00;1691810;83;21087;-88
2022/06/21 12:24:52;;;;;;;2.55;0.70;;;;;;;20.62;48.22;100646.94;1676660;83;21834;-91
2022/06/21 12:27:19;;;;;;;1.82;0.60;;;;;;;20.71;48.37;100650.78;1698552;83;21867;-89
2022/06/21 12:29:46;;;;;;;2.27;0.70;;;;;;;20.62;47.68;100638.91;1701852;83;21083;-85
2022/06/21 12:32:22;;;;;;;2.22;1.25;;;;;;;20.84;48.07;100650.10;1680454;84;21535;-91
2022/06/21 12:35:15;;;;;;;1.27;0.95;;;;;;;21.05;47.71;100653.27;1695493;83;21083;-89
2022/06/21 12:37:54;;;;;;;4.60;1.32;;;;;;;21.08;47.09;100671.50;1664744;85;21781;-90
2022/06/21 12:40:39;;;;;;;1.57;0.90;;;;;;;21.09;46.57;100675.91;1674680;84;21604;-91
2022/06/21 12:43:28;;;;;;;2.98;1.12;;;;;;;20.94;46.71;100665.05;1679932;84;21079;-90
2022/06/21 12:46:06;;;;;;;2.17;1.25;;;;;;;21.20;47.21;100666.34;1680718;83;21580;-90